sensor_id;sensor_type;location;lat;lon;timestamp;P1;durP1;ratioP1;P2;durP2;ratioP2
61960;SDS011;47923;42.506;24.192;2022-12-07T00:00:29;26.25;;;15.70;;
61960;SDS011;47923;42.506;24.192;2022-12-07T00:02:55;28.98;;;17.23;;
61960;SDS011;47923;42.506;24.192;2022-12-07T00:05:20;26.35;;;15.10;;
61960;SDS011;47923;42.506;24.192;2022-12-07T00:07:46;28.05;;;15.48;;
61960;SDS011;47923;42.506;24.192;2022-12-07T00:10:11;27.58;;;15.90;;
61960;SDS011;47923;42.506;24.192;2022-12-07T00:12:37;26.70;;;15.25;;
61960;SDS011;47923;42.506;24.192;2022-12-07T00:15:02;28.85;;;16.00;;
61960;SDS011;47923;42.506;24.192;2022-12-07T00:17:28;26.98;;;15.50;;
61960;SDS011;47923;42.506;24.192;2022-12-07T00:19:53;22.50;;;12.82;;
61960;SDS011;47923;42.506;24.192;2022-12-07T00:22:19;26.50;;;15.25;;
61960;SDS011;47923;42.506;24.192;2022-12-07T00:24:44;28.63;;;17.13;;
61960;SDS011;47923;42.506;24.192;2022-12-07T00:27:10;31.30;;;18.02;;
61960;SDS011;47923;42.506;24.192;2022-12-07T00:29:35;32.15;;;18.00;;
61960;SDS011;47923;42.506;24.192;2022-12-07T00:32:02;31.60;;;17.00;;
61960;SDS011;47923;42.506;24.192;2022-12-07T00:34:28;29.70;;;15.45;;
61960;SDS011;47923;42.506;24.192;2022-12-07T00:36:53;29.23;;;14.02;;
61960;SDS011;47923;42.506;24.192;2022-12-07T00:39:19;29.30;;;16.60;;
61960;SDS011;47923;42.506;24.192;2022-12-07T00:41:44;28.75;;;14.98;;
61960;SDS011;47923;42.506;24.192;2022-12-07T00:44:10;28.63;;;14.80;;
61960;SDS011;47923;42.506;24.192;2022-12-07T00:46:36;21.88;;;12.18;;
61960;SDS011;47923;42.506;24.192;2022-12-07T00:49:01;23.27;;;13.50;;
61960;SDS011;47923;42.506;24.192;2022-12-07T00:51:27;21.95;;;12.30;;
61960;SDS011;47923;42.506;24.192;2022-12-07T00:53:53;21.45;;;12.57;;
61960;SDS011;47923;42.506;24.192;2022-12-07T00:56:23;23.15;;;12.32;;
61960;SDS011;47923;42.506;24.192;2022-12-07T00:58:51;22.05;;;10.85;;
61960;SDS011;47923;42.506;24.192;2022-12-07T01:01:20;23.08;;;12.10;;
61960;SDS011;47923;42.506;24.192;2022-12-07T01:03:46;24.55;;;12.85;;
61960;SDS011;47923;42.506;24.192;2022-12-07T01:06:16;21.42;;;11.25;;
61960;SDS011;47923;42.506;24.192;2022-12-07T01:08:43;19.88;;;11.23;;
61960;SDS011;47923;42.506;24.192;2022-12-07T01:11:09;20.85;;;10.57;;
61960;SDS011;47923;42.506;24.192;2022-12-07T01:13:39;23.15;;;12.10;;
61960;SDS011;47923;42.506;24.192;2022-12-07T01:16:05;23.90;;;12.90;;
61960;SDS011;47923;42.506;24.192;2022-12-07T01:18:33;23.38;;;11.50;;
61960;SDS011;47923;42.506;24.192;2022-12-07T01:21:02;19.23;;;10.88;;
61960;SDS011;47923;42.506;24.192;2022-12-07T01:23:30;21.20;;;11.90;;
61960;SDS011;47923;42.506;24.192;2022-12-07T01:25:57;21.95;;;10.68;;
61960;SDS011;47923;42.506;24.192;2022-12-07T01:28:25;16.80;;;9.38;;
61960;SDS011;47923;42.506;24.192;2022-12-07T01:30:55;20.02;;;10.88;;
61960;SDS011;47923;42.506;24.192;2022-12-07T01:33:32;24.35;;;12.35;;
61960;SDS011;47923;42.506;24.192;2022-12-07T01:36:20;24.75;;;12.80;;
61960;SDS011;47923;42.506;24.192;2022-12-07T01:38:47;21.75;;;12.02;;
61960;SDS011;47923;42.506;24.192;2022-12-07T01:41:16;20.00;;;10.68;;
61960;SDS011;47923;42.506;24.192;2022-12-07T01:46:35;19.73;;;10.38;;
61960;SDS011;47923;42.506;24.192;2022-12-07T01:49:01;18.08;;;10.65;;
61960;SDS011;47923;42.506;24.192;2022-12-07T01:51:29;22.08;;;11.20;;
61960;SDS011;47923;42.506;24.192;2022-12-07T01:53:55;21.50;;;10.32;;
61960;SDS011;47923;42.506;24.192;2022-12-07T01:56:22;20.58;;;11.20;;
61960;SDS011;47923;42.506;24.192;2022-12-07T01:58:52;23.55;;;11.10;;
61960;SDS011;47923;42.506;24.192;2022-12-07T02:01:19;21.58;;;10.95;;
61960;SDS011;47923;42.506;24.192;2022-12-07T02:03:45;23.67;;;12.43;;
61960;SDS011;47923;42.506;24.192;2022-12-07T02:06:12;26.73;;;14.50;;
61960;SDS011;47923;42.506;24.192;2022-12-07T02:08:44;25.15;;;14.30;;
61960;SDS011;47923;42.506;24.192;2022-12-07T02:11:11;23.88;;;12.40;;
61960;SDS011;47923;42.506;24.192;2022-12-07T02:13:38;20.55;;;11.77;;
61960;SDS011;47923;42.506;24.192;2022-12-07T02:21:52;20.90;;;11.05;;
61960;SDS011;47923;42.506;24.192;2022-12-07T02:27:16;22.17;;;11.13;;
61960;SDS011;47923;42.506;24.192;2022-12-07T02:35:06;22.48;;;10.63;;
61960;SDS011;47923;42.506;24.192;2022-12-07T02:37:47;19.35;;;10.40;;
61960;SDS011;47923;42.506;24.192;2022-12-07T02:42:58;27.30;;;13.50;;
61960;SDS011;47923;42.506;24.192;2022-12-07T02:45:31;32.42;;;15.20;;
61960;SDS011;47923;42.506;24.192;2022-12-07T02:48:00;25.52;;;13.60;;
61960;SDS011;47923;42.506;24.192;2022-12-07T02:50:27;24.83;;;13.95;;
61960;SDS011;47923;42.506;24.192;2022-12-07T02:52:53;24.10;;;12.27;;
61960;SDS011;47923;42.506;24.192;2022-12-07T02:55:20;23.33;;;12.68;;
61960;SDS011;47923;42.506;24.192;2022-12-07T02:57:58;25.42;;;13.00;;
61960;SDS011;47923;42.506;24.192;2022-12-07T03:00:54;23.17;;;11.43;;
61960;SDS011;47923;42.506;24.192;2022-12-07T03:03:47;21.85;;;11.77;;
61960;SDS011;47923;42.506;24.192;2022-12-07T03:06:28;22.45;;;11.07;;
61960;SDS011;47923;42.506;24.192;2022-12-07T03:09:11;26.40;;;11.65;;
61960;SDS011;47923;42.506;24.192;2022-12-07T03:11:47;22.13;;;11.88;;
61960;SDS011;47923;42.506;24.192;2022-12-07T03:14:28;36.70;;;15.45;;
61960;SDS011;47923;42.506;24.192;2022-12-07T03:17:12;34.30;;;17.17;;
61960;SDS011;47923;42.506;24.192;2022-12-07T03:19:41;36.45;;;17.63;;
61960;SDS011;47923;42.506;24.192;2022-12-07T03:22:10;32.42;;;16.30;;
61960;SDS011;47923;42.506;24.192;2022-12-07T03:27:27;33.65;;;17.65;;
61960;SDS011;47923;42.506;24.192;2022-12-07T03:30:07;33.10;;;18.27;;
61960;SDS011;47923;42.506;24.192;2022-12-07T03:32:45;50.10;;;28.48;;
61960;SDS011;47923;42.506;24.192;2022-12-07T03:35:27;48.90;;;26.65;;
61960;SDS011;47923;42.506;24.192;2022-12-07T03:38:15;32.05;;;16.88;;
61960;SDS011;47923;42.506;24.192;2022-12-07T03:40:54;25.65;;;13.95;;
61960;SDS011;47923;42.506;24.192;2022-12-07T03:43:25;24.73;;;12.48;;
61960;SDS011;47923;42.506;24.192;2022-12-07T03:46:06;22.73;;;13.20;;
61960;SDS011;47923;42.506;24.192;2022-12-07T03:48:52;21.67;;;12.90;;
61960;SDS011;47923;42.506;24.192;2022-12-07T03:51:43;23.30;;;13.02;;
61960;SDS011;47923;42.506;24.192;2022-12-07T03:54:15;25.50;;;12.40;;
61960;SDS011;47923;42.506;24.192;2022-12-07T03:56:46;24.90;;;10.98;;
61960;SDS011;47923;42.506;24.192;2022-12-07T03:59:13;21.52;;;9.50;;
61960;SDS011;47923;42.506;24.192;2022-12-07T04:01:44;19.35;;;9.88;;
61960;SDS011;47923;42.506;24.192;2022-12-07T04:04:10;21.85;;;11.68;;
61960;SDS011;47923;42.506;24.192;2022-12-07T04:06:36;19.25;;;10.50;;
61960;SDS011;47923;42.506;24.192;2022-12-07T04:09:01;18.70;;;10.43;;
61960;SDS011;47923;42.506;24.192;2022-12-07T04:11:27;25.08;;;15.57;;
61960;SDS011;47923;42.506;24.192;2022-12-07T04:13:52;40.00;;;20.90;;
61960;SDS011;47923;42.506;24.192;2022-12-07T04:16:36;30.17;;;17.40;;
61960;SDS011;47923;42.506;24.192;2022-12-07T04:19:02;27.60;;;15.35;;
61960;SDS011;47923;42.506;24.192;2022-12-07T04:21:27;23.20;;;12.05;;
61960;SDS011;47923;42.506;24.192;2022-12-07T04:23:53;28.67;;;14.35;;
61960;SDS011;47923;42.506;24.192;2022-12-07T04:26:18;31.90;;;15.88;;
61960;SDS011;47923;42.506;24.192;2022-12-07T04:28:44;24.98;;;13.57;;
61960;SDS011;47923;42.506;24.192;2022-12-07T04:31:09;26.20;;;13.35;;
61960;SDS011;47923;42.506;24.192;2022-12-07T04:33:35;23.83;;;12.73;;
61960;SDS011;47923;42.506;24.192;2022-12-07T04:36:01;24.52;;;12.88;;
61960;SDS011;47923;42.506;24.192;2022-12-07T04:38:27;28.45;;;14.43;;
61960;SDS011;47923;42.506;24.192;2022-12-07T04:40:52;26.25;;;14.93;;
61960;SDS011;47923;42.506;24.192;2022-12-07T04:43:18;31.15;;;15.35;;
61960;SDS011;47923;42.506;24.192;2022-12-07T04:45:47;30.95;;;15.98;;
61960;SDS011;47923;42.506;24.192;2022-12-07T04:48:13;26.90;;;14.18;;
61960;SDS011;47923;42.506;24.192;2022-12-07T04:50:39;39.25;;;22.60;;
61960;SDS011;47923;42.506;24.192;2022-12-07T04:53:05;40.45;;;25.23;;
61960;SDS011;47923;42.506;24.192;2022-12-07T04:55:30;35.70;;;23.58;;
61960;SDS011;47923;42.506;24.192;2022-12-07T04:57:55;36.60;;;20.27;;
61960;SDS011;47923;42.506;24.192;2022-12-07T05:00:21;28.55;;;18.20;;
61960;SDS011;47923;42.506;24.192;2022-12-07T05:02:47;29.55;;;16.15;;
61960;SDS011;47923;42.506;24.192;2022-12-07T05:05:12;27.73;;;16.15;;
61960;SDS011;47923;42.506;24.192;2022-12-07T05:07:37;31.42;;;15.50;;
61960;SDS011;47923;42.506;24.192;2022-12-07T05:10:03;25.77;;;14.43;;
61960;SDS011;47923;42.506;24.192;2022-12-07T05:12:29;35.05;;;17.15;;
61960;SDS011;47923;42.506;24.192;2022-12-07T05:14:55;26.80;;;16.10;;
61960;SDS011;47923;42.506;24.192;2022-12-07T05:17:20;29.70;;;16.10;;
61960;SDS011;47923;42.506;24.192;2022-12-07T05:19:46;29.73;;;16.13;;
61960;SDS011;47923;42.506;24.192;2022-12-07T05:22:11;31.42;;;16.77;;
61960;SDS011;47923;42.506;24.192;2022-12-07T05:24:38;57.72;;;37.58;;
61960;SDS011;47923;42.506;24.192;2022-12-07T05:27:03;46.58;;;28.65;;
61960;SDS011;47923;42.506;24.192;2022-12-07T05:29:29;35.53;;;18.40;;
61960;SDS011;47923;42.506;24.192;2022-12-07T05:31:55;32.38;;;15.05;;
61960;SDS011;47923;42.506;24.192;2022-12-07T05:34:20;34.55;;;18.58;;
61960;SDS011;47923;42.506;24.192;2022-12-07T05:36:45;30.13;;;17.00;;
61960;SDS011;47923;42.506;24.192;2022-12-07T05:39:11;38.88;;;22.20;;
61960;SDS011;47923;42.506;24.192;2022-12-07T05:41:36;54.45;;;31.90;;
61960;SDS011;47923;42.506;24.192;2022-12-07T05:46:46;58.13;;;39.17;;
61960;SDS011;47923;42.506;24.192;2022-12-07T05:49:12;81.47;;;44.45;;
61960;SDS011;47923;42.506;24.192;2022-12-07T05:51:37;96.43;;;49.95;;
61960;SDS011;47923;42.506;24.192;2022-12-07T05:54:03;109.53;;;53.67;;
61960;SDS011;47923;42.506;24.192;2022-12-07T05:56:28;108.47;;;55.63;;
61960;SDS011;47923;42.506;24.192;2022-12-07T05:58:54;97.18;;;50.33;;
61960;SDS011;47923;42.506;24.192;2022-12-07T06:01:37;95.30;;;49.47;;
61960;SDS011;47923;42.506;24.192;2022-12-07T06:04:03;96.82;;;52.95;;
61960;SDS011;47923;42.506;24.192;2022-12-07T06:06:28;86.85;;;51.70;;
61960;SDS011;47923;42.506;24.192;2022-12-07T06:08:54;85.30;;;48.30;;
61960;SDS011;47923;42.506;24.192;2022-12-07T06:11:19;85.55;;;51.55;;
61960;SDS011;47923;42.506;24.192;2022-12-07T06:14:03;80.15;;;50.55;;
61960;SDS011;47923;42.506;24.192;2022-12-07T06:16:29;82.90;;;51.97;;
61960;SDS011;47923;42.506;24.192;2022-12-07T06:18:54;72.82;;;45.55;;
61960;SDS011;47923;42.506;24.192;2022-12-07T06:21:20;64.38;;;42.58;;
61960;SDS011;47923;42.506;24.192;2022-12-07T06:23:45;51.72;;;36.20;;
61960;SDS011;47923;42.506;24.192;2022-12-07T06:26:12;45.97;;;30.25;;
61960;SDS011;47923;42.506;24.192;2022-12-07T06:28:38;43.58;;;27.65;;
61960;SDS011;47923;42.506;24.192;2022-12-07T06:31:03;56.67;;;33.28;;
61960;SDS011;47923;42.506;24.192;2022-12-07T06:33:29;55.42;;;33.72;;
61960;SDS011;47923;42.506;24.192;2022-12-07T06:35:55;62.05;;;37.38;;
61960;SDS011;47923;42.506;24.192;2022-12-07T06:38:20;57.00;;;35.92;;
61960;SDS011;47923;42.506;24.192;2022-12-07T06:40:46;52.33;;;31.63;;
61960;SDS011;47923;42.506;24.192;2022-12-07T06:43:12;40.22;;;24.95;;
61960;SDS011;47923;42.506;24.192;2022-12-07T06:45:37;51.47;;;30.85;;
61960;SDS011;47923;42.506;24.192;2022-12-07T06:48:02;80.30;;;46.65;;
61960;SDS011;47923;42.506;24.192;2022-12-07T06:50:28;73.40;;;45.47;;
61960;SDS011;47923;42.506;24.192;2022-12-07T06:52:53;78.07;;;52.72;;
61960;SDS011;47923;42.506;24.192;2022-12-07T06:55:19;69.55;;;46.97;;
61960;SDS011;47923;42.506;24.192;2022-12-07T06:57:44;64.82;;;43.55;;
61960;SDS011;47923;42.506;24.192;2022-12-07T07:00:10;73.63;;;45.58;;
61960;SDS011;47923;42.506;24.192;2022-12-07T07:02:36;69.90;;;45.60;;
61960;SDS011;47923;42.506;24.192;2022-12-07T07:05:02;65.53;;;42.88;;
61960;SDS011;47923;42.506;24.192;2022-12-07T07:07:28;67.43;;;42.20;;
61960;SDS011;47923;42.506;24.192;2022-12-07T07:09:54;59.78;;;37.30;;
61960;SDS011;47923;42.506;24.192;2022-12-07T07:12:19;64.53;;;46.22;;
61960;SDS011;47923;42.506;24.192;2022-12-07T07:14:45;76.57;;;52.28;;
61960;SDS011;47923;42.506;24.192;2022-12-07T07:17:10;67.57;;;48.30;;
61960;SDS011;47923;42.506;24.192;2022-12-07T07:19:36;72.65;;;45.13;;
61960;SDS011;47923;42.506;24.192;2022-12-07T07:22:02;61.60;;;43.60;;
61960;SDS011;47923;42.506;24.192;2022-12-07T07:24:28;72.68;;;49.33;;
61960;SDS011;47923;42.506;24.192;2022-12-07T07:26:54;59.80;;;41.25;;
61960;SDS011;47923;42.506;24.192;2022-12-07T07:29:19;56.33;;;40.63;;
61960;SDS011;47923;42.506;24.192;2022-12-07T07:31:45;50.58;;;38.90;;
61960;SDS011;47923;42.506;24.192;2022-12-07T07:34:10;47.50;;;31.38;;
61960;SDS011;47923;42.506;24.192;2022-12-07T07:36:36;52.75;;;35.78;;
61960;SDS011;47923;42.506;24.192;2022-12-07T07:39:01;69.30;;;44.30;;
61960;SDS011;47923;42.506;24.192;2022-12-07T07:41:27;68.25;;;43.70;;
61960;SDS011;47923;42.506;24.192;2022-12-07T07:43:52;71.63;;;42.70;;
61960;SDS011;47923;42.506;24.192;2022-12-07T07:46:18;94.63;;;57.25;;
61960;SDS011;47923;42.506;24.192;2022-12-07T07:48:43;60.28;;;38.28;;
61960;SDS011;47923;42.506;24.192;2022-12-07T07:51:08;60.00;;;38.35;;
61960;SDS011;47923;42.506;24.192;2022-12-07T07:53:34;57.95;;;40.67;;
61960;SDS011;47923;42.506;24.192;2022-12-07T07:56:00;61.50;;;37.45;;
61960;SDS011;47923;42.506;24.192;2022-12-07T07:58:25;70.05;;;45.10;;
61960;SDS011;47923;42.506;24.192;2022-12-07T08:00:50;71.63;;;48.67;;
61960;SDS011;47923;42.506;24.192;2022-12-07T08:03:16;70.07;;;47.00;;
61960;SDS011;47923;42.506;24.192;2022-12-07T08:05:42;56.97;;;39.03;;
61960;SDS011;47923;42.506;24.192;2022-12-07T08:08:08;68.32;;;44.97;;
61960;SDS011;47923;42.506;24.192;2022-12-07T08:10:33;62.10;;;42.95;;
61960;SDS011;47923;42.506;24.192;2022-12-07T08:13:01;76.88;;;46.42;;
61960;SDS011;47923;42.506;24.192;2022-12-07T08:15:36;70.60;;;48.42;;
61960;SDS011;47923;42.506;24.192;2022-12-07T08:18:02;66.80;;;43.35;;
61960;SDS011;47923;42.506;24.192;2022-12-07T08:20:32;67.80;;;46.72;;
61960;SDS011;47923;42.506;24.192;2022-12-07T08:22:58;69.20;;;48.65;;
61960;SDS011;47923;42.506;24.192;2022-12-07T08:25:24;69.43;;;46.45;;
61960;SDS011;47923;42.506;24.192;2022-12-07T08:27:50;62.65;;;46.10;;
61960;SDS011;47923;42.506;24.192;2022-12-07T08:30:16;73.63;;;50.92;;
61960;SDS011;47923;42.506;24.192;2022-12-07T08:32:42;81.03;;;52.55;;
61960;SDS011;47923;42.506;24.192;2022-12-07T08:35:09;81.45;;;55.33;;
61960;SDS011;47923;42.506;24.192;2022-12-07T08:37:35;83.47;;;55.25;;
61960;SDS011;47923;42.506;24.192;2022-12-07T08:40:01;69.47;;;49.85;;
61960;SDS011;47923;42.506;24.192;2022-12-07T08:42:26;78.50;;;52.00;;
61960;SDS011;47923;42.506;24.192;2022-12-07T08:44:55;63.17;;;45.80;;
61960;SDS011;47923;42.506;24.192;2022-12-07T08:47:22;54.67;;;39.10;;
61960;SDS011;47923;42.506;24.192;2022-12-07T08:49:48;58.60;;;39.10;;
61960;SDS011;47923;42.506;24.192;2022-12-07T08:52:17;55.15;;;36.92;;
61960;SDS011;47923;42.506;24.192;2022-12-07T08:54:42;45.83;;;33.33;;
61960;SDS011;47923;42.506;24.192;2022-12-07T08:57:09;49.20;;;34.97;;
61960;SDS011;47923;42.506;24.192;2022-12-07T08:59:35;55.75;;;39.00;;
61960;SDS011;47923;42.506;24.192;2022-12-07T09:02:03;53.58;;;41.30;;
61960;SDS011;47923;42.506;24.192;2022-12-07T09:04:29;53.60;;;38.28;;
61960;SDS011;47923;42.506;24.192;2022-12-07T09:06:55;48.13;;;35.17;;
61960;SDS011;47923;42.506;24.192;2022-12-07T09:09:21;46.90;;;32.05;;
61960;SDS011;47923;42.506;24.192;2022-12-07T09:11:46;40.28;;;30.10;;
61960;SDS011;47923;42.506;24.192;2022-12-07T09:14:12;44.53;;;30.27;;
61960;SDS011;47923;42.506;24.192;2022-12-07T09:16:38;33.60;;;24.27;;
61960;SDS011;47923;42.506;24.192;2022-12-07T09:19:03;27.52;;;20.45;;
61960;SDS011;47923;42.506;24.192;2022-12-07T09:21:29;26.67;;;19.42;;
61960;SDS011;47923;42.506;24.192;2022-12-07T09:23:55;31.15;;;22.85;;
61960;SDS011;47923;42.506;24.192;2022-12-07T09:26:20;29.17;;;20.42;;
61960;SDS011;47923;42.506;24.192;2022-12-07T09:28:46;26.25;;;17.67;;
61960;SDS011;47923;42.506;24.192;2022-12-07T09:31:11;32.35;;;24.83;;
61960;SDS011;47923;42.506;24.192;2022-12-07T09:33:37;27.02;;;18.42;;
61960;SDS011;47923;42.506;24.192;2022-12-07T09:36:03;24.73;;;17.17;;
61960;SDS011;47923;42.506;24.192;2022-12-07T09:38:29;24.90;;;18.05;;
61960;SDS011;47923;42.506;24.192;2022-12-07T09:40:56;24.52;;;17.45;;
61960;SDS011;47923;42.506;24.192;2022-12-07T09:43:22;26.73;;;18.40;;
61960;SDS011;47923;42.506;24.192;2022-12-07T09:45:51;22.83;;;13.73;;
61960;SDS011;47923;42.506;24.192;2022-12-07T09:50:54;18.33;;;12.82;;
61960;SDS011;47923;42.506;24.192;2022-12-07T09:53:32;25.40;;;13.02;;
61960;SDS011;47923;42.506;24.192;2022-12-07T09:55:59;18.95;;;13.25;;
61960;SDS011;47923;42.506;24.192;2022-12-07T09:58:27;18.52;;;10.45;;
61960;SDS011;47923;42.506;24.192;2022-12-07T10:01:28;20.48;;;11.27;;
61960;SDS011;47923;42.506;24.192;2022-12-07T10:06:17;16.20;;;9.95;;
61960;SDS011;47923;42.506;24.192;2022-12-07T10:08:43;18.52;;;11.25;;
61960;SDS011;47923;42.506;24.192;2022-12-07T10:11:09;15.45;;;10.25;;
61960;SDS011;47923;42.506;24.192;2022-12-07T10:16:06;14.57;;;10.55;;
61960;SDS011;47923;42.506;24.192;2022-12-07T10:18:53;13.88;;;9.70;;
61960;SDS011;47923;42.506;24.192;2022-12-07T10:26:29;16.58;;;10.13;;
61960;SDS011;47923;42.506;24.192;2022-12-07T10:28:55;14.18;;;9.60;;
61960;SDS011;47923;42.506;24.192;2022-12-07T10:31:24;16.77;;;9.55;;
61960;SDS011;47923;42.506;24.192;2022-12-07T10:33:54;13.30;;;9.75;;
61960;SDS011;47923;42.506;24.192;2022-12-07T10:41:35;17.85;;;10.48;;
61960;SDS011;47923;42.506;24.192;2022-12-07T10:44:01;15.50;;;10.27;;
61960;SDS011;47923;42.506;24.192;2022-12-07T10:46:44;15.05;;;10.50;;
61960;SDS011;47923;42.506;24.192;2022-12-07T11:05:27;18.48;;;12.88;;
61960;SDS011;47923;42.506;24.192;2022-12-07T11:18:59;23.20;;;16.88;;
61960;SDS011;47923;42.506;24.192;2022-12-07T11:24:08;17.58;;;11.05;;
61960;SDS011;47923;42.506;24.192;2022-12-07T11:26:46;22.10;;;14.27;;
61960;SDS011;47923;42.506;24.192;2022-12-07T11:37:40;22.08;;;13.75;;
61960;SDS011;47923;42.506;24.192;2022-12-07T11:40:20;17.58;;;10.82;;
61960;SDS011;47923;42.506;24.192;2022-12-07T11:42:59;15.38;;;9.55;;
61960;SDS011;47923;42.506;24.192;2022-12-07T11:45:30;16.70;;;11.20;;
61960;SDS011;47923;42.506;24.192;2022-12-07T11:50:48;19.77;;;13.23;;
61960;SDS011;47923;42.506;24.192;2022-12-07T11:53:20;18.48;;;11.93;;
61960;SDS011;47923;42.506;24.192;2022-12-07T11:58:42;27.63;;;17.58;;
61960;SDS011;47923;42.506;24.192;2022-12-07T12:04:02;21.23;;;14.10;;
61960;SDS011;47923;42.506;24.192;2022-12-07T12:06:36;26.55;;;16.48;;
61960;SDS011;47923;42.506;24.192;2022-12-07T12:14:30;23.08;;;15.98;;
61960;SDS011;47923;42.506;24.192;2022-12-07T12:17:20;19.23;;;12.70;;
61960;SDS011;47923;42.506;24.192;2022-12-07T12:20:04;22.50;;;14.63;;
61960;SDS011;47923;42.506;24.192;2022-12-07T12:22:58;23.55;;;14.18;;
61960;SDS011;47923;42.506;24.192;2022-12-07T12:25:34;18.08;;;10.70;;
61960;SDS011;47923;42.506;24.192;2022-12-07T12:28:05;18.80;;;12.35;;
61960;SDS011;47923;42.506;24.192;2022-12-07T12:30:35;22.15;;;12.15;;
61960;SDS011;47923;42.506;24.192;2022-12-07T12:33:25;20.30;;;12.50;;
61960;SDS011;47923;42.506;24.192;2022-12-07T12:36:42;30.38;;;20.25;;
61960;SDS011;47923;42.506;24.192;2022-12-07T12:49:34;28.17;;;15.68;;
61960;SDS011;47923;42.506;24.192;2022-12-07T12:54:39;28.58;;;15.88;;
61960;SDS011;47923;42.506;24.192;2022-12-07T12:57:28;30.30;;;17.88;;
61960;SDS011;47923;42.506;24.192;2022-12-07T12:59:58;32.83;;;21.20;;
61960;SDS011;47923;42.506;24.192;2022-12-07T13:02:28;29.98;;;18.15;;
61960;SDS011;47923;42.506;24.192;2022-12-07T13:20:57;21.98;;;14.60;;
61960;SDS011;47923;42.506;24.192;2022-12-07T13:26:00;29.15;;;18.77;;
61960;SDS011;47923;42.506;24.192;2022-12-07T13:28:38;47.70;;;26.52;;
61960;SDS011;47923;42.506;24.192;2022-12-07T13:33:53;27.75;;;16.48;;
61960;SDS011;47923;42.506;24.192;2022-12-07T13:36:20;30.13;;;16.20;;
61960;SDS011;47923;42.506;24.192;2022-12-07T13:38:52;32.95;;;18.98;;
61960;SDS011;47923;42.506;24.192;2022-12-07T13:41:24;64.80;;;40.20;;
61960;SDS011;47923;42.506;24.192;2022-12-07T13:44:03;34.80;;;20.27;;
61960;SDS011;47923;42.506;24.192;2022-12-07T13:49:38;31.33;;;19.83;;
61960;SDS011;47923;42.506;24.192;2022-12-07T13:52:23;33.47;;;22.48;;
61960;SDS011;47923;42.506;24.192;2022-12-07T13:57:31;36.88;;;22.77;;
61960;SDS011;47923;42.506;24.192;2022-12-07T14:00:00;35.38;;;19.77;;
61960;SDS011;47923;42.506;24.192;2022-12-07T14:02:29;36.90;;;21.73;;
61960;SDS011;47923;42.506;24.192;2022-12-07T14:05:15;43.63;;;25.92;;
61960;SDS011;47923;42.506;24.192;2022-12-07T14:07:53;37.28;;;22.92;;
61960;SDS011;47923;42.506;24.192;2022-12-07T14:10:32;35.30;;;20.50;;
61960;SDS011;47923;42.506;24.192;2022-12-07T14:13:00;40.42;;;26.08;;
61960;SDS011;47923;42.506;24.192;2022-12-07T14:15:28;38.45;;;23.13;;
61960;SDS011;47923;42.506;24.192;2022-12-07T14:17:56;47.15;;;27.58;;
61960;SDS011;47923;42.506;24.192;2022-12-07T14:22:55;36.20;;;21.77;;
61960;SDS011;47923;42.506;24.192;2022-12-07T14:25:25;43.00;;;24.83;;
61960;SDS011;47923;42.506;24.192;2022-12-07T14:30:21;35.97;;;22.13;;
61960;SDS011;47923;42.506;24.192;2022-12-07T14:32:57;39.80;;;23.27;;
61960;SDS011;47923;42.506;24.192;2022-12-07T14:35:27;34.83;;;19.73;;
61960;SDS011;47923;42.506;24.192;2022-12-07T14:37:53;33.20;;;20.40;;
61960;SDS011;47923;42.506;24.192;2022-12-07T14:40:20;54.63;;;30.65;;
61960;SDS011;47923;42.506;24.192;2022-12-07T14:42:48;50.92;;;27.77;;
61960;SDS011;47923;42.506;24.192;2022-12-07T14:45:20;61.03;;;37.35;;
61960;SDS011;47923;42.506;24.192;2022-12-07T14:47:47;38.22;;;22.80;;
61960;SDS011;47923;42.506;24.192;2022-12-07T14:50:14;37.17;;;22.52;;
61960;SDS011;47923;42.506;24.192;2022-12-07T14:52:41;49.03;;;27.25;;
61960;SDS011;47923;42.506;24.192;2022-12-07T14:55:13;41.80;;;23.80;;
61960;SDS011;47923;42.506;24.192;2022-12-07T15:00:09;40.90;;;25.55;;
61960;SDS011;47923;42.506;24.192;2022-12-07T15:02:39;46.55;;;27.65;;
61960;SDS011;47923;42.506;24.192;2022-12-07T15:05:05;45.75;;;26.35;;
61960;SDS011;47923;42.506;24.192;2022-12-07T15:07:30;42.53;;;25.45;;
61960;SDS011;47923;42.506;24.192;2022-12-07T15:09:56;61.35;;;36.33;;
61960;SDS011;47923;42.506;24.192;2022-12-07T15:12:22;48.65;;;29.33;;
61960;SDS011;47923;42.506;24.192;2022-12-07T15:14:48;57.30;;;34.88;;
61960;SDS011;47923;42.506;24.192;2022-12-07T15:17:14;52.47;;;31.02;;
61960;SDS011;47923;42.506;24.192;2022-12-07T15:19:39;58.85;;;37.63;;
61960;SDS011;47923;42.506;24.192;2022-12-07T15:22:04;63.30;;;38.35;;
61960;SDS011;47923;42.506;24.192;2022-12-07T15:24:30;53.67;;;32.17;;
61960;SDS011;47923;42.506;24.192;2022-12-07T15:26:56;40.53;;;25.95;;
61960;SDS011;47923;42.506;24.192;2022-12-07T15:29:21;45.95;;;28.73;;
61960;SDS011;47923;42.506;24.192;2022-12-07T15:31:48;55.72;;;31.63;;
61960;SDS011;47923;42.506;24.192;2022-12-07T15:34:14;53.58;;;31.95;;
61960;SDS011;47923;42.506;24.192;2022-12-07T15:36:39;52.63;;;34.63;;
61960;SDS011;47923;42.506;24.192;2022-12-07T15:39:05;56.78;;;34.22;;
61960;SDS011;47923;42.506;24.192;2022-12-07T15:41:30;48.85;;;30.00;;
61960;SDS011;47923;42.506;24.192;2022-12-07T15:43:56;58.10;;;31.48;;
61960;SDS011;47923;42.506;24.192;2022-12-07T15:49:14;50.10;;;28.90;;
61960;SDS011;47923;42.506;24.192;2022-12-07T15:51:41;44.78;;;25.95;;
61960;SDS011;47923;42.506;24.192;2022-12-07T15:54:20;52.15;;;28.70;;
61960;SDS011;47923;42.506;24.192;2022-12-07T15:56:47;47.50;;;27.48;;
61960;SDS011;47923;42.506;24.192;2022-12-07T15:59:13;49.25;;;29.08;;
61960;SDS011;47923;42.506;24.192;2022-12-07T16:01:39;61.63;;;32.33;;
61960;SDS011;47923;42.506;24.192;2022-12-07T16:04:04;51.65;;;31.75;;
61960;SDS011;47923;42.506;24.192;2022-12-07T16:06:29;49.90;;;24.40;;
61960;SDS011;47923;42.506;24.192;2022-12-07T16:08:55;45.20;;;24.45;;
61960;SDS011;47923;42.506;24.192;2022-12-07T16:11:21;47.85;;;26.75;;
61960;SDS011;47923;42.506;24.192;2022-12-07T16:13:47;50.63;;;26.23;;
61960;SDS011;47923;42.506;24.192;2022-12-07T16:16:13;41.97;;;24.50;;
61960;SDS011;47923;42.506;24.192;2022-12-07T16:18:41;45.95;;;25.90;;
61960;SDS011;47923;42.506;24.192;2022-12-07T16:21:08;43.95;;;27.80;;
61960;SDS011;47923;42.506;24.192;2022-12-07T16:23:33;47.03;;;28.88;;
61960;SDS011;47923;42.506;24.192;2022-12-07T16:26:03;75.47;;;46.13;;
61960;SDS011;47923;42.506;24.192;2022-12-07T16:28:33;56.58;;;36.38;;
61960;SDS011;47923;42.506;24.192;2022-12-07T16:31:00;51.60;;;31.55;;
61960;SDS011;47923;42.506;24.192;2022-12-07T16:33:34;55.78;;;35.05;;
61960;SDS011;47923;42.506;24.192;2022-12-07T16:36:01;48.15;;;28.52;;
61960;SDS011;47923;42.506;24.192;2022-12-07T16:38:28;57.88;;;33.08;;
61960;SDS011;47923;42.506;24.192;2022-12-07T16:40:53;46.50;;;29.90;;
61960;SDS011;47923;42.506;24.192;2022-12-07T16:43:19;53.00;;;32.53;;